createdAt,value
2023-02-22T00:07:56.358Z,6.4
2023-02-22T00:17:58.923Z,5.9
2023-02-22T00:28:01.242Z,5.4
2023-02-22T00:38:03.046Z,4.9
2023-02-22T00:48:05.187Z,4.6
2023-02-22T00:58:07.039Z,4.3
2023-02-22T01:08:09.339Z,4
2023-02-22T01:28:12.951Z,3.4
2023-02-22T01:38:15.273Z,3.1
2023-02-22T01:48:17.869Z,3.1
2023-02-22T01:58:20.423Z,3.2
2023-02-22T02:08:22.980Z,3.7
2023-02-22T02:18:24.697Z,4.3
2023-02-22T02:38:28.533Z,5
2023-02-22T02:48:30.205Z,5.2
2023-02-22T02:58:32.846Z,5.2
2023-02-22T03:08:34.628Z,5.2
2023-02-22T03:18:36.417Z,5.2
2023-02-22T03:28:38.304Z,5.2
2023-02-22T03:38:40.685Z,5.1
2023-02-22T03:48:42.877Z,5
2023-02-22T03:58:46.397Z,4.9
2023-02-22T04:18:48.602Z,4.8
2023-02-22T04:28:50.508Z,4.5
2023-02-22T04:38:52.389Z,4.5
2023-02-22T04:48:54.421Z,4.4
2023-02-22T04:58:56.383Z,4.2
2023-02-22T05:08:58.401Z,4.3
2023-02-22T05:19:00.270Z,4.3
2023-02-22T05:29:02.243Z,4.3
2023-02-22T05:39:04.617Z,4.3
2023-02-22T05:49:06.786Z,4.3
2023-02-22T05:59:08.987Z,4.3
2023-02-22T06:09:10.800Z,4.3
2023-02-22T06:19:12.651Z,4.2
2023-02-22T06:29:15.151Z,4.1
2023-02-22T06:39:17.733Z,4.1
2023-02-22T06:49:19.929Z,4.1
2023-02-22T07:09:24.310Z,4
2023-02-22T07:19:26.568Z,4
2023-02-22T07:29:28.540Z,3.9
2023-02-22T07:39:31.130Z,3.7
2023-02-22T07:49:33.771Z,3.8
2023-02-22T08:09:38.695Z,3.7
2023-02-22T08:19:41.248Z,3.7
2023-02-22T08:29:43.696Z,3.6
2023-02-22T08:39:45.375Z,3.7
2023-02-22T08:49:47.172Z,3.8
2023-02-22T08:59:49.717Z,3.9
2023-02-22T09:09:52.000Z,3.9
2023-02-22T09:19:54.047Z,3.9
2023-02-22T09:29:56.592Z,4.4
2023-02-22T09:39:59.185Z,4.7
2023-02-22T10:10:06.798Z,5.5
2023-02-22T10:20:08.646Z,6
2023-02-22T10:30:23.691Z,6
2023-02-22T10:40:13.624Z,6.4
2023-02-22T10:50:16.070Z,6.5
2023-02-22T11:10:20.151Z,7.2
2023-02-22T11:20:22.730Z,7.8
2023-02-22T11:30:25.078Z,8.3
2023-02-22T11:40:27.184Z,8.9
2023-02-22T11:50:29.122Z,9.1
2023-02-22T12:00:31.746Z,9.9
2023-02-22T12:10:34.200Z,10.8
2023-02-22T12:20:36.840Z,11.1
2023-02-22T12:30:38.833Z,11.8
2023-02-22T12:50:43.224Z,11.8
2023-02-22T13:00:45.516Z,12
2023-02-22T13:10:47.728Z,12.8
2023-02-22T13:20:50.109Z,13.1
2023-02-22T13:30:52.709Z,13.3
2023-02-22T13:50:57.054Z,13.4
2023-02-22T14:00:58.757Z,13.4
2023-02-22T14:11:01.171Z,13.7
2023-02-22T14:21:03.411Z,13.4
2023-02-22T14:31:05.425Z,13.5
2023-02-22T14:41:06.977Z,13.3
2023-02-22T14:51:20.470Z,13.3
2023-02-22T15:01:11.589Z,13.5
2023-02-22T15:11:13.841Z,13.9
2023-02-22T15:21:15.672Z,14
2023-02-22T15:31:18.491Z,14
2023-02-22T15:33:01.566Z,14
2023-02-22T15:41:28.986Z,13.8
2023-02-22T15:51:30.836Z,13.7
2023-02-22T16:01:33.180Z,13.4
2023-02-22T16:11:35.203Z,13.1
2023-02-22T16:21:37.424Z,12.9
2023-02-22T16:31:39.929Z,12.6
2023-02-22T16:41:41.744Z,12.3
2023-02-22T16:51:43.758Z,11.9
2023-02-22T17:01:46.316Z,11.7
2023-02-22T17:11:48.775Z,11.8
2023-02-22T17:21:51.310Z,11.4
2023-02-22T17:31:53.892Z,11.1
2023-02-22T17:41:56.254Z,10.7
2023-02-22T17:51:58.315Z,10.2
2023-02-22T18:02:00.772Z,9.9
2023-02-22T18:12:02.458Z,9.5
2023-02-22T18:22:04.411Z,9
2023-02-22T18:32:06.574Z,8.5
2023-02-22T18:42:08.851Z,9
2023-02-22T18:52:11.166Z,10.2
2023-02-22T19:02:13.489Z,10.5
2023-02-22T19:12:16.045Z,10.4
2023-02-22T19:22:17.937Z,10
2023-02-22T19:32:19.872Z,9.7
2023-02-22T19:42:22.431Z,9.7
2023-02-22T19:52:25.016Z,9.4
2023-02-22T20:12:29.560Z,9.1
2023-02-22T20:22:31.639Z,9
2023-02-22T20:32:33.814Z,9
2023-02-22T20:42:36.225Z,8.9
2023-02-22T20:52:38.805Z,8.8
2023-02-22T21:02:40.842Z,8.6
2023-02-22T21:12:42.967Z,8.4
2023-02-22T21:22:45.066Z,8.4
2023-02-22T21:32:47.146Z,8.4
2023-02-22T21:42:49.842Z,8.6
2023-02-22T21:52:51.542Z,8.6
2023-02-22T22:02:53.269Z,8.7
2023-02-22T22:12:55.279Z,8.7
2023-02-22T22:22:57.000Z,8.7
2023-02-22T22:32:59.052Z,8.6
2023-02-22T22:43:00.926Z,8.5
2023-02-22T22:53:03.267Z,8.5
2023-02-22T23:13:07.493Z,8.4
2023-02-22T23:23:09.327Z,8.4
2023-02-22T23:33:11.649Z,8.3
2023-02-22T23:43:13.614Z,8.3
2023-02-22T23:53:15.920Z,8.3
